Time;durP1;ratioP1;P1;durP2;ratioP2;P2;SDS_P1;SDS_P2;PMS_P1;PMS_P2;Temp;Humidity;BMP_temperature;BMP_pressure;BME280_temperature;BME280_humidity;BME280_pressure;Samples;Min_cycle;Max_cycle;Signal;HPM_P1;HPM_P2
2024/03/07 00:00:43;;;;;;;19.98;9.60;;;4.20;99.90;;;;;;5019822;28;20032;-70
2024/03/07 00:03:08;;;;;;;21.33;10.27;;;4.20;99.90;;;;;;5016830;28;20598;-69
2024/03/07 00:05:34;;;;;;;20.80;10.18;;;4.20;99.90;;;;;;5013951;28;20072;-70
2024/03/07 00:08:00;;;;;;;19.67;9.98;;;4.20;99.90;;;;;;5021084;28;20033;-69
2024/03/07 00:10:25;;;;;;;23.88;9.73;;;4.20;99.90;;;;;;5019718;28;20097;-70
2024/03/07 00:12:51;;;;;;;19.42;9.55;;;4.20;99.90;;;;;;5017907;28;20033;-70
2024/03/07 00:15:17;;;;;;;18.88;9.75;;;4.10;99.90;;;;;;5019703;28;20021;-69
2024/03/07 00:17:43;;;;;;;20.95;10.02;;;4.10;99.90;;;;;;5018328;28;20095;-70
2024/03/07 00:20:13;;;;;;;22.40;10.20;;;4.10;99.90;;;;;;5015625;28;20499;-69
2024/03/07 00:22:39;;;;;;;21.88;10.05;;;4.10;99.90;;;;;;5010021;28;20111;-68
2024/03/07 00:25:06;;;;;;;20.75;10.00;;;4.10;99.90;;;;;;5023406;28;20070;-70
2024/03/07 00:27:33;;;;;;;19.15;9.18;;;4.10;99.90;;;;;;5017195;28;20116;-69
2024/03/07 00:29:59;;;;;;;20.00;9.73;;;4.10;99.90;;;;;;5019792;28;20040;-70
2024/03/07 00:32:27;;;;;;;20.25;10.18;;;4.00;99.90;;;;;;5017264;28;20066;-69
2024/03/07 00:34:52;;;;;;;19.23;9.60;;;4.00;99.90;;;;;;5007418;28;20043;-70
2024/03/07 00:37:18;;;;;;;20.70;9.75;;;4.00;99.90;;;;;;5007721;28;20044;-70
2024/03/07 00:39:44;;;;;;;21.48;10.45;;;3.90;99.90;;;;;;5016030;28;20148;-70
2024/03/07 00:42:09;;;;;;;20.50;10.10;;;3.90;99.90;;;;;;5020396;28;20103;-70
2024/03/07 00:44:35;;;;;;;20.25;9.65;;;3.90;99.90;;;;;;5013281;28;20048;-69
2024/03/07 00:47:02;;;;;;;21.05;9.57;;;3.80;99.90;;;;;;5016364;28;20088;-69
2024/03/07 00:49:28;;;;;;;22.38;9.85;;;3.80;99.90;;;;;;5013971;28;20033;-70
2024/03/07 00:51:54;;;;;;;21.67;9.82;;;3.80;99.90;;;;;;5012021;28;20390;-70
2024/03/07 00:54:20;;;;;;;23.30;9.50;;;3.80;99.90;;;;;;5020652;28;20632;-69
2024/03/07 00:56:48;;;;;;;21.50;9.90;;;3.70;99.90;;;;;;5014195;28;20072;-70
2024/03/07 00:59:17;;;;;;;28.17;10.32;;;3.70;99.90;;;;;;5012165;28;20057;-70
2024/03/07 01:01:43;;;;;;;20.25;9.55;;;3.70;99.90;;;;;;5006641;28;20030;-69
2024/03/07 01:04:09;;;;;;;17.67;9.50;;;3.60;99.90;;;;;;5000179;28;20109;-70
2024/03/07 01:06:36;;;;;;;21.25;10.18;;;3.60;99.90;;;;;;4999822;28;20108;-69
2024/03/07 01:09:02;;;;;;;25.07;10.27;;;3.70;99.90;;;;;;5003291;28;20111;-70
2024/03/07 01:11:28;;;;;;;20.95;10.30;;;3.70;99.90;;;;;;5017814;28;20068;-69
2024/03/07 01:13:55;;;;;;;18.77;8.88;;;3.70;99.90;;;;;;5016889;28;20052;-69
2024/03/07 01:16:21;;;;;;;21.77;9.65;;;3.70;99.90;;;;;;5016044;28;20673;-69
2024/03/07 01:18:47;;;;;;;21.63;9.18;;;3.70;99.90;;;;;;5017964;28;20037;-70
2024/03/07 01:21:13;;;;;;;22.00;10.27;;;3.70;99.90;;;;;;5019248;28;20036;-69
2024/03/07 01:23:40;;;;;;;19.98;9.70;;;3.70;99.90;;;;;;5018046;28;20121;-69
2024/03/07 01:26:06;;;;;;;23.48;9.52;;;3.70;99.90;;;;;;5011599;28;20402;-69
2024/03/07 01:28:31;;;;;;;21.27;9.90;;;3.70;99.90;;;;;;5013866;28;20042;-70
2024/03/07 01:30:58;;;;;;;17.52;9.30;;;3.60;99.90;;;;;;5016644;28;20069;-69
2024/03/07 01:33:24;;;;;;;21.67;10.70;;;3.60;99.90;;;;;;5016047;28;20029;-69
2024/03/07 01:35:50;;;;;;;19.85;9.77;;;3.60;99.90;;;;;;5017407;28;20053;-69
2024/03/07 01:38:16;;;;;;;21.60;10.00;;;3.60;99.90;;;;;;5025115;28;20703;-70
2024/03/07 01:40:43;;;;;;;19.23;9.57;;;3.60;99.90;;;;;;5021062;28;20026;-69
2024/03/07 01:43:10;;;;;;;20.55;9.60;;;3.50;99.90;;;;;;5020506;28;20029;-69
2024/03/07 01:45:37;;;;;;;18.90;9.88;;;3.50;99.90;;;;;;5023974;28;20303;-70
2024/03/07 01:48:08;;;;;;;25.27;10.38;;;3.50;99.90;;;;;;5036356;28;20022;-69
2024/03/07 01:50:38;;;;;;;22.58;9.05;;;3.50;99.90;;;;;;5016110;28;20110;-69
2024/03/07 01:53:04;;;;;;;24.98;10.52;;;3.50;99.90;;;;;;5021417;28;20030;-70
2024/03/07 01:55:29;;;;;;;19.92;9.48;;;3.40;99.90;;;;;;5023055;28;20038;-69
2024/03/07 01:58:02;;;;;;;20.13;9.52;;;3.40;99.90;;;;;;5019284;28;20353;-70
2024/03/07 02:00:28;;;;;;;24.85;10.50;;;3.40;99.90;;;;;;5019443;28;20555;-69
2024/03/07 02:02:53;;;;;;;19.05;9.45;;;3.30;99.90;;;;;;5019441;28;20482;-70
2024/03/07 02:05:20;;;;;;;18.77;9.68;;;3.30;99.90;;;;;;5013254;28;20033;-70
2024/03/07 02:07:46;;;;;;;20.40;10.13;;;3.30;99.90;;;;;;5015288;28;20046;-69
2024/03/07 02:10:12;;;;;;;19.15;9.70;;;3.30;99.90;;;;;;5014831;28;20042;-69
2024/03/07 02:12:37;;;;;;;21.55;10.70;;;3.30;99.90;;;;;;5017513;28;20038;-69
2024/03/07 02:15:03;;;;;;;21.83;10.60;;;3.30;99.90;;;;;;5015197;28;20018;-69
2024/03/07 02:17:29;;;;;;;19.48;9.63;;;3.20;99.90;;;;;;5017084;28;20049;-68
2024/03/07 02:19:55;;;;;;;24.35;10.63;;;3.20;99.90;;;;;;5013873;28;20177;-68
2024/03/07 02:22:20;;;;;;;21.05;10.20;;;3.20;99.90;;;;;;5015275;28;20030;-69
2024/03/07 02:24:46;;;;;;;23.27;11.18;;;3.20;99.90;;;;;;5016347;28;20022;-69
2024/03/07 02:27:17;;;;;;;22.95;10.90;;;3.10;99.90;;;;;;5015671;28;20046;-70
2024/03/07 02:29:42;;;;;;;23.45;10.43;;;3.00;99.90;;;;;;5013119;28;20030;-69
2024/03/07 02:32:09;;;;;;;21.63;10.02;;;3.10;99.90;;;;;;5013751;28;20116;-69
2024/03/07 02:34:35;;;;;;;21.10;10.98;;;3.10;99.90;;;;;;5021728;28;20620;-69
2024/03/07 02:37:02;;;;;;;18.55;9.85;;;3.00;99.90;;;;;;5013969;28;20100;-68
2024/03/07 02:39:28;;;;;;;19.50;9.23;;;3.00;99.90;;;;;;5014366;28;20026;-69
2024/03/07 02:41:53;;;;;;;23.02;11.13;;;3.00;99.90;;;;;;5017110;28;20197;-68
2024/03/07 02:44:19;;;;;;;20.10;10.20;;;3.00;99.90;;;;;;5024493;28;20437;-69
2024/03/07 02:46:46;;;;;;;21.15;10.93;;;3.00;99.90;;;;;;5017873;28;20033;-68
2024/03/07 02:49:12;;;;;;;23.27;10.73;;;2.90;99.90;;;;;;5015779;28;20041;-69
2024/03/07 02:51:38;;;;;;;26.90;11.15;;;2.90;99.90;;;;;;5021244;28;20096;-69
2024/03/07 02:54:05;;;;;;;25.45;11.48;;;2.90;99.90;;;;;;5015359;28;20068;-68
2024/03/07 02:56:31;;;;;;;30.27;11.23;;;2.90;99.90;;;;;;5023521;28;20117;-69
2024/03/07 02:58:57;;;;;;;19.92;10.02;;;2.80;99.90;;;;;;5018571;28;20037;-70
2024/03/07 03:01:22;;;;;;;16.27;9.63;;;2.90;99.90;;;;;;5019584;28;20060;-68
2024/03/07 03:03:48;;;;;;;22.88;11.57;;;2.90;99.90;;;;;;5019205;28;20046;-69
2024/03/07 03:06:13;;;;;;;22.23;10.75;;;2.80;99.90;;;;;;5019288;28;20411;-69
2024/03/07 03:08:39;;;;;;;23.20;10.88;;;2.90;99.90;;;;;;5018714;28;20039;-69
2024/03/07 03:11:04;;;;;;;24.13;10.82;;;2.90;99.90;;;;;;5023223;28;20041;-70
2024/03/07 03:13:30;;;;;;;22.42;10.85;;;2.90;99.90;;;;;;5019865;28;20565;-69
2024/03/07 03:15:56;;;;;;;24.50;11.45;;;2.90;99.90;;;;;;5011863;28;20129;-69
2024/03/07 03:18:23;;;;;;;22.00;10.95;;;2.90;99.90;;;;;;5023094;28;20087;-70
2024/03/07 03:20:52;;;;;;;23.15;11.90;;;3.00;99.90;;;;;;5013874;28;20053;-69
2024/03/07 03:23:18;;;;;;;28.55;12.65;;;3.00;99.90;;;;;;5020817;28;20033;-69
2024/03/07 03:25:45;;;;;;;26.20;12.43;;;3.10;99.90;;;;;;5025072;28;20030;-69
2024/03/07 03:28:11;;;;;;;25.60;12.27;;;3.20;99.90;;;;;;5018834;28;20038;-70
2024/03/07 03:30:43;;;;;;;30.02;13.73;;;3.20;99.90;;;;;;5021327;28;20091;-70
2024/03/07 03:33:09;;;;;;;25.15;12.60;;;3.20;99.90;;;;;;5016149;28;20591;-69
2024/03/07 03:35:35;;;;;;;25.92;13.38;;;3.20;99.90;;;;;;5019449;28;20079;-69
2024/03/07 03:38:00;;;;;;;24.67;11.38;;;3.30;99.90;;;;;;5014767;28;20030;-69
2024/03/07 03:40:26;;;;;;;25.63;12.90;;;3.30;99.90;;;;;;5011412;28;20514;-69
2024/03/07 03:42:52;;;;;;;23.42;12.38;;;3.40;99.90;;;;;;5016457;28;20075;-69
2024/03/07 03:45:18;;;;;;;27.40;13.05;;;3.40;99.90;;;;;;5021676;28;20026;-69
2024/03/07 03:47:44;;;;;;;29.13;13.13;;;3.50;99.90;;;;;;5016604;28;20580;-68
2024/03/07 03:50:12;;;;;;;29.90;12.98;;;3.50;99.90;;;;;;5016022;28;20025;-70
2024/03/07 03:52:41;;;;;;;29.88;13.48;;;3.50;99.90;;;;;;5017029;28;20041;-69
2024/03/07 03:55:14;;;;;;;29.65;13.20;;;3.50;99.90;;;;;;5018927;28;20690;-69
2024/03/07 03:57:41;;;;;;;28.15;13.63;;;3.60;99.90;;;;;;5012582;28;20049;-69
2024/03/07 04:00:14;;;;;;;24.67;12.65;;;3.60;99.90;;;;;;5011742;28;20240;-70
2024/03/07 04:02:41;;;;;;;27.92;13.45;;;3.60;99.90;;;;;;5011959;28;20038;-69
2024/03/07 04:05:09;;;;;;;25.25;13.20;;;3.60;99.90;;;;;;5017350;28;20038;-70
2024/03/07 04:07:35;;;;;;;26.45;13.35;;;3.70;99.90;;;;;;5011035;28;20095;-69
2024/03/07 04:10:03;;;;;;;27.15;13.10;;;3.70;99.90;;;;;;5013617;28;20096;-69
2024/03/07 04:12:28;;;;;;;30.60;14.35;;;3.70;99.90;;;;;;5021221;28;20021;-69
2024/03/07 04:14:57;;;;;;;28.27;13.68;;;3.70;99.90;;;;;;5014384;28;20037;-70
2024/03/07 04:17:22;;;;;;;33.67;14.68;;;3.70;99.90;;;;;;5018823;28;20084;-69
2024/03/07 04:19:48;;;;;;;34.75;13.90;;;3.70;99.90;;;;;;5018157;28;20446;-69
2024/03/07 04:22:14;;;;;;;29.30;14.38;;;3.80;99.90;;;;;;5012792;28;20030;-68
2024/03/07 04:24:40;;;;;;;31.48;14.82;;;3.80;99.90;;;;;;5013348;28;20448;-69
2024/03/07 04:27:06;;;;;;;29.05;14.75;;;3.80;99.90;;;;;;5018669;28;20040;-69
2024/03/07 04:29:34;;;;;;;31.27;15.13;;;3.80;99.90;;;;;;5016456;28;20096;-69
2024/03/07 04:32:04;;;;;;;34.28;14.68;;;3.80;99.90;;;;;;5018366;28;20030;-69
2024/03/07 04:34:30;;;;;;;26.63;13.88;;;3.80;99.90;;;;;;5021460;28;20065;-70
2024/03/07 04:37:01;;;;;;;37.85;15.30;;;3.80;99.90;;;;;;5010914;28;20052;-69
2024/03/07 04:39:33;;;;;;;32.60;15.30;;;3.90;99.90;;;;;;5010910;28;20036;-70
2024/03/07 04:42:01;;;;;;;31.48;15.27;;;3.90;99.90;;;;;;5009913;28;20069;-69
2024/03/07 04:44:27;;;;;;;32.10;15.38;;;3.90;99.90;;;;;;5016756;28;20625;-69
2024/03/07 04:46:56;;;;;;;32.05;15.18;;;3.90;99.90;;;;;;5016797;28;20042;-69
2024/03/07 04:49:26;;;;;;;35.05;15.98;;;4.00;99.90;;;;;;5013417;28;20034;-68
2024/03/07 04:51:56;;;;;;;34.00;16.65;;;4.00;99.90;;;;;;5011366;28;20029;-69
2024/03/07 04:54:22;;;;;;;30.73;15.38;;;4.00;99.90;;;;;;5014928;28;20057;-68
2024/03/07 04:56:49;;;;;;;32.35;16.17;;;4.00;99.90;;;;;;5019003;28;20575;-69
2024/03/07 04:59:16;;;;;;;34.50;16.38;;;4.10;99.90;;;;;;5015190;28;20064;-69
2024/03/07 05:01:42;;;;;;;32.85;16.02;;;4.10;99.90;;;;;;5013321;28;20052;-69
2024/03/07 05:04:08;;;;;;;36.97;17.45;;;4.10;99.90;;;;;;5015745;28;20564;-69
2024/03/07 05:06:35;;;;;;;37.28;18.42;;;4.10;99.90;;;;;;5013622;28;20116;-69
2024/03/07 05:09:06;;;;;;;40.05;17.92;;;4.20;99.90;;;;;;5016551;28;20037;-68
2024/03/07 05:11:33;;;;;;;36.78;17.40;;;4.20;99.90;;;;;;5012903;28;20030;-69
2024/03/07 05:13:59;;;;;;;38.42;16.80;;;4.20;99.90;;;;;;5013653;28;20091;-69
2024/03/07 05:16:26;;;;;;;39.25;18.05;;;4.40;99.90;;;;;;5011400;28;20037;-69
2024/03/07 05:18:52;;;;;;;39.42;18.67;;;4.30;99.90;;;;;;5015090;28;20467;-69
2024/03/07 05:24:03;;;;;;;43.85;18.55;;;4.30;99.90;;;;;;5015527;28;20125;-69
2024/03/07 05:26:33;;;;;;;40.95;19.10;;;4.30;99.90;;;;;;5014766;28;20042;-70
2024/03/07 05:29:07;;;;;;;45.00;19.55;;;4.30;99.90;;;;;;5008448;28;20030;-69
2024/03/07 05:31:34;;;;;;;40.92;18.55;;;4.40;99.90;;;;;;5016626;28;20038;-69
2024/03/07 05:34:03;;;;;;;45.47;19.58;;;4.40;99.90;;;;;;5011110;28;20387;-68
2024/03/07 05:36:31;;;;;;;46.90;19.45;;;4.40;99.90;;;;;;4998229;28;20034;-68
2024/03/07 05:38:57;;;;;;;;;;;4.50;99.90;;;;;;5015857;28;20022;-70
2024/03/07 05:41:23;;;;;;;48.90;19.60;;;4.50;99.90;;;;;;5015281;28;19919;-68
2024/03/07 05:43:51;;;;;;;47.53;20.45;;;4.50;99.90;;;;;;5017436;28;20046;-69
2024/03/07 05:46:16;;;;;;;53.38;21.42;;;4.50;99.90;;;;;;5015932;28;20065;-69
2024/03/07 05:48:42;;;;;;;57.03;22.27;;;4.50;99.90;;;;;;5013147;28;20037;-69
2024/03/07 05:51:10;;;;;;;52.15;20.20;;;4.60;99.90;;;;;;5011360;28;20057;-69
2024/03/07 05:53:37;;;;;;;54.03;22.63;;;4.60;99.90;;;;;;5012908;28;20100;-69
2024/03/07 05:56:03;;;;;;;57.43;21.73;;;4.60;99.90;;;;;;5011310;28;20060;-69
2024/03/07 05:58:28;;;;;;;61.63;22.80;;;4.70;99.90;;;;;;5014858;28;20270;-69
2024/03/07 06:00:54;;;;;;;58.88;23.13;;;4.70;99.90;;;;;;5014118;28;20397;-69
2024/03/07 06:03:19;;;;;;;57.17;22.73;;;4.70;99.90;;;;;;5012263;28;20022;-69
2024/03/07 06:05:49;;;;;;;61.13;23.65;;;4.70;99.90;;;;;;5015824;28;20033;-69
2024/03/07 06:08:18;;;;;;;68.93;24.33;;;4.70;99.90;;;;;;5016825;28;20050;-69
2024/03/07 06:10:44;;;;;;;69.15;23.00;;;4.80;99.90;;;;;;5015212;28;20049;-69
2024/03/07 06:13:12;;;;;;;69.60;23.85;;;4.80;99.90;;;;;;5017517;28;20080;-69
2024/03/07 06:15:39;;;;;;;73.18;24.75;;;4.80;99.90;;;;;;5013661;28;20022;-69
2024/03/07 06:18:10;;;;;;;60.50;24.33;;;4.80;99.90;;;;;;5013683;28;20014;-70
2024/03/07 06:20:37;;;;;;;72.72;23.92;;;4.80;99.90;;;;;;5009304;28;20076;-70
2024/03/07 06:23:05;;;;;;;80.95;24.95;;;4.90;99.90;;;;;;5011960;28;20117;-69
2024/03/07 06:25:37;;;;;;;66.32;25.33;;;4.90;99.90;;;;;;5019632;28;20060;-69
2024/03/07 06:28:12;;;;;;;66.40;25.27;;;4.90;99.90;;;;;;5018831;28;20037;-70
2024/03/07 06:30:43;;;;;;;70.85;24.13;;;4.90;99.90;;;;;;5017419;28;20033;-69
2024/03/07 06:33:12;;;;;;;73.35;26.45;;;5.00;99.90;;;;;;5018683;28;20026;-69
2024/03/07 06:35:38;;;;;;;69.75;26.15;;;5.00;99.90;;;;;;5018081;28;20522;-69
2024/03/07 06:38:08;;;;;;;80.22;26.25;;;5.00;99.90;;;;;;5017212;28;20556;-69
2024/03/07 06:40:42;;;;;;;75.75;26.45;;;5.10;99.90;;;;;;5014448;28;20029;-68
2024/03/07 06:43:11;;;;;;;74.22;26.30;;;5.10;99.90;;;;;;5019625;28;20090;-69
2024/03/07 06:45:37;;;;;;;71.13;24.65;;;5.10;99.90;;;;;;5015119;28;20030;-69
2024/03/07 06:48:06;;;;;;;93.80;27.73;;;5.20;99.90;;;;;;5017507;28;20483;-69
2024/03/07 06:50:32;;;;;;;89.90;27.58;;;5.20;99.90;;;;;;5016153;28;20126;-69
2024/03/07 06:52:58;;;;;;;75.85;26.05;;;5.30;99.90;;;;;;5011957;28;20613;-72
2024/03/07 06:55:24;;;;;;;68.50;25.95;;;5.30;99.90;;;;;;5014425;28;20670;-67
2024/03/07 06:57:49;;;;;;;89.40;27.65;;;5.30;99.90;;;;;;5022637;28;20040;-69
2024/03/07 07:00:21;;;;;;;80.70;27.48;;;5.30;99.90;;;;;;5017585;28;20597;-69
2024/03/07 07:02:48;;;;;;;83.05;28.95;;;5.30;99.90;;;;;;5016617;28;20037;-69
2024/03/07 07:05:18;;;;;;;85.68;26.60;;;5.40;99.90;;;;;;5020267;28;20083;-69
2024/03/07 07:07:44;;;;;;;68.95;26.90;;;5.40;99.90;;;;;;5021963;28;20045;-69
2024/03/07 07:10:23;;;;;;;73.45;26.60;;;5.50;99.90;;;;;;5015996;28;20061;-68
2024/03/07 07:12:49;;;;;;;78.68;26.80;;;5.50;99.90;;;;;;5026631;28;20049;-69
2024/03/07 07:15:18;;;;;;;73.78;26.48;;;5.60;99.90;;;;;;5025593;28;20494;-69
2024/03/07 07:17:49;;;;;;;69.45;27.27;;;5.60;99.90;;;;;;5023271;28;20057;-68
2024/03/07 07:20:16;;;;;;;72.88;25.90;;;5.60;99.90;;;;;;5021852;28;20054;-69
2024/03/07 07:22:43;;;;;;;74.50;27.23;;;5.60;99.90;;;;;;5021434;28;20556;-69
2024/03/07 07:25:13;;;;;;;67.63;27.33;;;5.70;99.90;;;;;;5023463;28;20029;-69
2024/03/07 07:27:42;;;;;;;73.03;25.15;;;5.70;99.90;;;;;;5025883;28;20116;-69
2024/03/07 07:30:09;;;;;;;65.38;25.67;;;5.80;99.90;;;;;;5024050;28;20685;-69
2024/03/07 07:32:36;;;;;;;68.13;26.10;;;5.80;99.90;;;;;;5010279;28;20034;-69
2024/03/07 07:35:02;;;;;;;66.60;24.73;;;5.90;99.90;;;;;;5017561;28;20266;-69
2024/03/07 07:37:27;;;;;;;73.15;26.63;;;5.90;99.90;;;;;;5019926;28;20038;-69
2024/03/07 07:39:53;;;;;;;65.20;26.95;;;5.90;99.90;;;;;;5022841;28;20060;-69
2024/03/07 07:42:19;;;;;;;69.90;26.35;;;6.00;99.90;;;;;;5022181;28;20113;-69
2024/03/07 07:44:45;;;;;;;62.33;24.92;;;6.00;99.90;;;;;;5026014;28;20539;-69
2024/03/07 07:47:10;;;;;;;72.40;25.75;;;6.10;99.90;;;;;;5021220;28;20065;-69
2024/03/07 07:49:38;;;;;;;75.35;26.15;;;6.10;99.90;;;;;;5010841;28;20061;-69
2024/03/07 07:52:04;;;;;;;70.35;26.10;;;6.20;99.90;;;;;;5013210;28;20128;-69
2024/03/07 07:54:30;;;;;;;71.80;26.00;;;6.20;99.90;;;;;;5023493;28;20033;-68
2024/03/07 07:56:55;;;;;;;67.72;24.40;;;6.30;99.90;;;;;;5022410;28;20615;-68
2024/03/07 07:59:21;;;;;;;68.10;25.13;;;6.30;99.90;;;;;;5021712;28;20041;-69
2024/03/07 08:01:47;;;;;;;69.25;25.65;;;6.30;99.90;;;;;;5022709;28;20099;-68
2024/03/07 08:04:12;;;;;;;70.78;25.45;;;6.40;99.90;;;;;;5017167;28;20498;-69
2024/03/07 08:06:38;;;;;;;66.60;24.55;;;6.40;99.90;;;;;;5016226;28;20092;-69
2024/03/07 08:09:09;;;;;;;62.80;24.85;;;6.50;99.90;;;;;;5012021;28;20391;-69
2024/03/07 08:11:36;;;;;;;74.90;25.77;;;6.50;99.90;;;;;;5015918;28;20049;-69
2024/03/07 08:14:02;;;;;;;73.65;25.95;;;6.50;99.90;;;;;;5025723;28;20060;-69
2024/03/07 08:16:28;;;;;;;63.28;25.38;;;6.60;99.90;;;;;;5022521;28;20057;-69
2024/03/07 08:18:53;;;;;;;59.08;24.27;;;6.60;99.90;;;;;;5018021;28;20485;-69
2024/03/07 08:21:19;;;;;;;67.07;23.13;;;6.60;99.90;;;;;;5017372;28;20026;-68
2024/03/07 08:23:46;;;;;;;73.22;24.10;;;6.60;99.90;;;;;;5018605;28;20034;-69
2024/03/07 08:26:12;;;;;;;62.60;23.13;;;6.60;99.90;;;;;;5020218;28;20518;-69
2024/03/07 08:28:37;;;;;;;68.38;23.60;;;6.70;99.90;;;;;;5014776;28;20068;-69
2024/03/07 08:31:04;;;;;;;66.63;23.50;;;6.80;99.90;;;;;;5012137;28;20422;-69
2024/03/07 08:33:33;;;;;;;62.13;22.52;;;6.60;99.90;;;;;;5016582;28;20075;-69
2024/03/07 08:35:59;;;;;;;61.25;23.00;;;6.70;99.90;;;;;;5023498;28;20026;-69
2024/03/07 08:38:24;;;;;;;69.45;23.15;;;6.80;99.90;;;;;;5021082;28;20077;-68
2024/03/07 08:40:50;;;;;;;63.75;23.08;;;6.80;99.90;;;;;;5015691;28;20053;-68
2024/03/07 08:43:16;;;;;;;60.75;22.90;;;6.80;99.90;;;;;;5019932;28;20041;-69
2024/03/07 08:45:41;;;;;;;68.10;22.98;;;6.80;99.90;;;;;;5014369;28;20033;-69
2024/03/07 08:48:09;;;;;;;58.80;22.90;;;6.80;99.90;;;;;;5016072;28;20524;-69
2024/03/07 08:50:37;;;;;;;58.85;21.92;;;6.80;99.90;;;;;;5020420;28;20021;-69
2024/03/07 08:53:04;;;;;;;64.93;22.20;;;6.80;99.90;;;;;;5024016;28;20108;-69
2024/03/07 08:55:30;;;;;;;58.73;21.80;;;6.80;99.90;;;;;;5019074;28;20088;-69
2024/03/07 08:57:56;;;;;;;68.72;22.15;;;6.90;99.90;;;;;;5008730;28;20278;-68
2024/03/07 09:00:23;;;;;;;64.47;22.92;;;6.80;99.90;;;;;;5015291;28;20482;-69
2024/03/07 09:02:51;;;;;;;61.40;21.08;;;6.90;99.90;;;;;;5020079;28;20038;-69
2024/03/07 09:05:17;;;;;;;59.42;22.08;;;6.90;99.90;;;;;;5025928;28;20445;-69
2024/03/07 09:07:44;;;;;;;60.03;22.70;;;7.00;99.90;;;;;;5022802;28;20037;-68
2024/03/07 09:10:10;;;;;;;57.90;22.20;;;7.00;99.90;;;;;;5023098;28;20739;-69
2024/03/07 09:12:36;;;;;;;61.22;21.08;;;7.10;99.90;;;;;;5016820;28;20034;-69
2024/03/07 09:15:05;;;;;;;59.25;21.02;;;7.20;99.90;;;;;;5012492;28;20602;-69
2024/03/07 09:17:31;;;;;;;59.25;21.08;;;7.20;99.90;;;;;;5012224;28;20040;-69
2024/03/07 09:19:57;;;;;;;49.75;21.17;;;7.20;99.90;;;;;;5025480;28;20041;-69
2024/03/07 09:22:24;;;;;;;55.00;20.20;;;7.20;99.90;;;;;;5018005;28;20034;-69
2024/03/07 09:24:49;;;;;;;53.60;20.58;;;7.20;99.90;;;;;;5018042;28;20032;-69
2024/03/07 09:27:20;;;;;;;55.67;20.08;;;7.20;99.90;;;;;;5022702;28;20037;-68
2024/03/07 09:29:49;;;;;;;55.13;21.42;;;7.30;99.90;;;;;;5020694;28;20052;-69
2024/03/07 09:32:14;;;;;;;55.35;19.75;;;7.30;99.90;;;;;;5014107;28;20038;-69
2024/03/07 09:34:40;;;;;;;51.17;19.90;;;7.40;99.90;;;;;;5012090;28;20756;-69
2024/03/07 09:37:09;;;;;;;54.08;21.98;;;7.50;99.90;;;;;;5018560;28;20038;-69
2024/03/07 09:39:35;;;;;;;47.83;18.95;;;7.40;99.90;;;;;;5011016;28;20108;-69
2024/03/07 09:42:12;;;;;;;50.80;19.35;;;7.40;99.90;;;;;;5020894;28;20100;-68
2024/03/07 09:44:42;;;;;;;57.03;20.07;;;7.40;99.90;;;;;;5016348;28;20038;-69
2024/03/07 09:47:08;;;;;;;50.45;18.73;;;7.30;99.90;;;;;;5016242;28;20279;-69
2024/03/07 09:49:36;;;;;;;58.45;22.85;;;7.40;99.90;;;;;;5020747;28;20416;-68
2024/03/07 09:52:05;;;;;;;54.67;20.42;;;7.40;99.90;;;;;;5017925;28;20632;-69
2024/03/07 09:54:31;;;;;;;53.13;20.02;;;7.30;99.90;;;;;;5011102;28;20040;-70
2024/03/07 09:57:02;;;;;;;62.00;21.95;;;7.30;99.90;;;;;;5014622;28;20092;-69
2024/03/07 09:59:30;;;;;;;56.33;21.17;;;7.30;99.90;;;;;;5023204;28;20065;-68
2024/03/07 10:01:56;;;;;;;51.90;20.60;;;7.30;99.90;;;;;;5017275;28;20051;-68
2024/03/07 10:04:33;;;;;;;60.60;21.17;;;7.30;99.90;;;;;;5021181;28;20037;-69
2024/03/07 10:06:59;;;;;;;58.90;22.05;;;7.30;99.90;;;;;;5025127;28;20033;-69
2024/03/07 10:09:25;;;;;;;64.63;21.52;;;7.30;99.90;;;;;;5023092;28;20459;-69
2024/03/07 10:12:02;;;;;;;58.70;20.45;;;7.20;99.90;;;;;;5017275;28;20037;-68
2024/03/07 10:14:31;;;;;;;67.55;21.40;;;7.20;99.90;;;;;;5025030;28;20036;-69
2024/03/07 10:16:57;;;;;;;59.58;22.42;;;7.20;99.90;;;;;;5024677;28;20128;-69
2024/03/07 10:19:22;;;;;;;60.15;21.13;;;7.30;99.90;;;;;;5022516;28;20112;-69
2024/03/07 10:21:48;;;;;;;63.95;22.13;;;7.30;99.90;;;;;;5020144;28;20040;-69
2024/03/07 10:24:14;;;;;;;63.03;21.60;;;7.30;99.90;;;;;;5015630;28;20076;-69
2024/03/07 10:26:40;;;;;;;59.40;20.98;;;7.30;99.90;;;;;;5033353;28;20406;-69
2024/03/07 10:29:07;;;;;;;64.03;22.33;;;7.30;99.90;;;;;;5030331;28;20049;-69
2024/03/07 10:31:34;;;;;;;65.90;22.50;;;7.30;99.90;;;;;;5030739;28;20041;-69
2024/03/07 10:34:03;;;;;;;58.35;19.65;;;7.40;99.90;;;;;;5030847;28;20036;-69
2024/03/07 10:36:32;;;;;;;53.60;20.67;;;7.40;99.90;;;;;;5023552;28;20028;-69
2024/03/07 10:39:04;;;;;;;62.83;20.70;;;7.40;99.90;;;;;;5019131;28;20054;-69
2024/03/07 10:41:36;;;;;;;61.33;20.83;;;7.40;99.90;;;;;;5020920;28;20091;-69
2024/03/07 10:44:06;;;;;;;69.80;21.27;;;7.40;99.90;;;;;;5017639;28;20030;-68
2024/03/07 10:46:33;;;;;;;65.25;22.33;;;7.40;99.90;;;;;;5025155;28;20112;-69
2024/03/07 10:49:07;;;;;;;80.72;24.17;;;7.40;99.90;;;;;;5024028;28;20080;-68
2024/03/07 10:51:44;;;;;;;66.65;21.90;;;7.50;99.90;;;;;;5010371;28;20033;-69
2024/03/07 10:54:21;;;;;;;82.38;24.67;;;7.60;99.90;;;;;;5022403;28;20051;-69
2024/03/07 10:57:05;;;;;;;83.15;24.25;;;7.80;99.90;;;;;;5017403;28;20414;-69
2024/03/07 10:59:33;;;;;;;65.25;22.27;;;7.90;99.90;;;;;;5019581;28;20041;-69
2024/03/07 11:02:20;;;;;;;63.33;22.60;;;8.00;99.90;;;;;;5017776;28;20076;-69
2024/03/07 11:04:48;;;;;;;72.67;22.50;;;8.10;99.90;;;;;;5016986;28;20041;-68
2024/03/07 11:07:14;;;;;;;56.90;22.70;;;8.10;99.90;;;;;;5021046;28;20275;-69
2024/03/07 11:09:42;;;;;;;67.07;21.77;;;8.20;99.90;;;;;;5018438;28;20044;-69
2024/03/07 11:12:11;;;;;;;69.03;21.60;;;8.20;99.90;;;;;;5023140;28;20026;-68
2024/03/07 11:14:39;;;;;;;63.60;22.17;;;8.20;99.90;;;;;;5018910;28;20495;-69
2024/03/07 11:17:06;;;;;;;67.07;24.10;;;8.30;99.90;;;;;;5016389;28;20398;-69
2024/03/07 11:19:36;;;;;;;67.38;23.00;;;8.40;99.90;;;;;;5020632;28;20034;-69
2024/03/07 11:22:13;;;;;;;64.13;22.73;;;8.50;99.90;;;;;;5013776;28;20046;-70
2024/03/07 11:24:39;;;;;;;77.65;23.55;;;8.60;99.90;;;;;;5020791;28;20040;-69
2024/03/07 11:27:13;;;;;;;75.72;23.52;;;8.60;99.90;;;;;;5019855;28;20033;-69
2024/03/07 11:29:52;;;;;;;63.22;23.25;;;8.70;99.90;;;;;;5019046;28;20572;-69
2024/03/07 11:32:20;;;;;;;65.20;22.20;;;8.70;99.90;;;;;;5023035;28;20041;-69
2024/03/07 11:34:47;;;;;;;;;;;8.80;99.90;;;;;;5017346;28;20510;-69
2024/03/07 11:37:22;;;;;;;65.15;21.70;;;9.10;99.90;;;;;;5018133;28;20441;-69
2024/03/07 11:39:52;;;;;;;64.28;23.73;;;9.20;99.90;;;;;;5023478;28;20065;-69
2024/03/07 11:42:33;;;;;;;69.03;23.30;;;9.40;99.90;;;;;;5017129;28;20140;-69
2024/03/07 11:44:59;;;;;;;56.47;19.75;;;9.50;99.90;;;;;;5014515;28;20046;-69
2024/03/07 11:47:29;;;;;;;51.47;20.60;;;9.50;99.90;;;;;;5024606;28;20033;-69
2024/03/07 11:49:57;;;;;;;52.75;19.92;;;9.50;99.90;;;;;;5014077;28;20041;-69
2024/03/07 11:52:23;;;;;;;;;;;9.50;99.90;;;;;;5013377;28;20050;-68
2024/03/07 11:54:49;;;;;;;53.65;19.67;;;9.30;99.90;;;;;;5015985;28;19948;-69
2024/03/07 11:57:32;;;;;;;49.95;19.02;;;9.30;99.90;;;;;;5014848;28;20541;-69
2024/03/07 12:00:00;;;;;;;50.97;19.63;;;9.30;99.90;;;;;;5026059;28;20049;-70
2024/03/07 12:02:27;;;;;;;50.80;18.25;;;9.20;99.90;;;;;;5022506;28;20368;-69
2024/03/07 12:04:53;;;;;;;49.15;20.38;;;9.30;99.90;;;;;;5021940;28;20129;-69
2024/03/07 12:07:22;;;;;;;48.42;18.30;;;9.90;99.90;;;;;;5018847;28;20387;-69
2024/03/07 12:09:53;;;;;;;53.65;20.65;;;10.40;99.90;;;;;;5018825;28;20067;-69
2024/03/07 12:12:27;;;;;;;44.63;17.13;;;11.20;99.90;;;;;;5019021;28;20028;-69
2024/03/07 12:14:54;;;;;;;45.83;18.35;;;11.20;99.40;;;;;;5021243;28;20526;-70
2024/03/07 12:17:20;;;;;;;41.45;17.92;;;11.30;99.30;;;;;;5016359;28;20042;-69
2024/03/07 12:19:46;;;;;;;44.80;18.27;;;11.00;98.30;;;;;;5014318;28;20029;-69
2024/03/07 12:22:13;;;;;;;41.63;16.63;;;10.80;98.60;;;;;;5008899;28;20109;-69
2024/03/07 12:24:42;;;;;;;40.67;16.13;;;10.70;98.30;;;;;;5021553;28;20030;-69
2024/03/07 12:27:12;;;;;;;43.80;18.25;;;10.50;98.20;;;;;;5013280;28;20052;-70
2024/03/07 12:29:43;;;;;;;45.42;17.75;;;10.30;97.80;;;;;;5015314;28;20141;-69
2024/03/07 12:32:13;;;;;;;42.80;17.77;;;10.20;98.00;;;;;;5021604;28;20041;-69
2024/03/07 12:34:45;;;;;;;41.83;17.13;;;10.10;98.40;;;;;;5019546;28;20116;-68
2024/03/07 12:37:11;;;;;;;47.13;17.73;;;10.00;98.50;;;;;;5022662;28;20553;-69
2024/03/07 12:39:46;;;;;;;55.13;19.23;;;9.90;99.20;;;;;;5019244;28;20064;-68
2024/03/07 12:42:14;;;;;;;45.97;18.33;;;9.80;99.50;;;;;;5013541;28;20441;-68